Time;durP1;ratioP1;P1;durP2;ratioP2;P2;SDS_P1;SDS_P2;PMS_P1;PMS_P2;Temp;Humidity;BMP_temperature;BMP_pressure;BME280_temperature;BME280_humidity;BME280_pressure;Samples;Min_cycle;Max_cycle;Signal;HPM_P1;HPM_P2
2022/03/24 00:01:20;;;;;;;50.00;33.30;;;;;;;6.35;61.04;102865.03;5075966;28;20365;-51
2022/03/24 00:03:46;;;;;;;50.08;33.20;;;;;;;6.30;61.11;102858.53;5075410;28;20069;-54
2022/03/24 00:06:12;;;;;;;47.78;33.17;;;;;;;6.22;61.17;102867.94;5075640;28;20028;-53
2022/03/24 00:08:37;;;;;;;48.85;34.08;;;;;;;6.19;61.64;102855.47;5075335;28;20039;-52
2022/03/24 00:11:02;;;;;;;49.53;34.28;;;;;;;6.18;61.89;102858.47;5075780;28;20016;-53
2022/03/24 00:13:28;;;;;;;46.72;32.30;;;;;;;6.12;62.25;102865.69;5074099;28;20047;-51
2022/03/24 00:15:53;;;;;;;49.85;33.97;;;;;;;6.10;62.94;102856.84;5075370;28;20037;-53
2022/03/24 00:18:18;;;;;;;50.05;34.65;;;;;;;6.04;62.23;102853.13;5076277;28;20024;-52
2022/03/24 00:20:44;;;;;;;47.28;32.20;;;;;;;6.03;62.30;102856.91;5074933;28;20523;-51
2022/03/24 00:23:09;;;;;;;48.20;33.50;;;;;;;6.03;62.38;102859.66;5087352;28;20043;-52
2022/03/24 00:25:34;;;;;;;49.28;34.03;;;;;;;6.06;62.67;102858.38;5075263;28;20040;-49
2022/03/24 00:28:00;;;;;;;46.53;33.85;;;;;;;6.06;62.26;102850.13;5074713;28;20032;-52
2022/03/24 00:30:25;;;;;;;47.55;33.38;;;;;;;6.07;62.41;102854.56;5075365;28;20388;-50
2022/03/24 00:32:50;;;;;;;46.47;33.05;;;;;;;6.07;62.63;102852.63;5081576;28;20471;-51
2022/03/24 00:35:16;;;;;;;45.80;32.67;;;;;;;6.08;62.52;102854.31;5095228;28;20024;-50
2022/03/24 00:37:41;;;;;;;48.80;33.72;;;;;;;6.01;63.63;102850.81;5095484;28;20093;-50
2022/03/24 00:40:07;;;;;;;48.60;33.72;;;;;;;5.96;63.87;102842.34;5094811;28;20475;-49
2022/03/24 00:42:36;;;;;;;50.03;33.47;;;;;;;5.88;64.02;102842.66;5095049;28;20051;-53
2022/03/24 00:45:06;;;;;;;50.85;34.10;;;;;;;5.74;63.74;102842.78;5095672;28;20114;-54
2022/03/24 00:47:35;;;;;;;45.90;32.42;;;;;;;5.71;63.33;102848.72;5095175;28;20047;-51
2022/03/24 00:50:01;;;;;;;50.90;34.35;;;;;;;5.73;64.09;102853.97;5094451;28;20016;-50
2022/03/24 00:52:26;;;;;;;48.67;34.10;;;;;;;5.68;63.61;102840.91;5095186;28;20039;-54
2022/03/24 00:54:51;;;;;;;48.80;33.80;;;;;;;5.60;63.68;102844.78;5095439;28;20077;-50
2022/03/24 00:57:17;;;;;;;47.58;32.17;;;;;;;5.58;64.19;102841.41;5095178;28;20054;-51
2022/03/24 00:59:42;;;;;;;49.92;32.92;;;;;;;5.59;64.12;102845.84;5095311;28;20024;-50
2022/03/24 01:02:09;;;;;;;49.10;33.50;;;;;;;5.53;63.27;102843.16;5094635;28;20023;-52
2022/03/24 01:04:36;;;;;;;48.58;34.72;;;;;;;5.50;65.50;102840.84;5095140;28;20107;-49
2022/03/24 01:07:03;;;;;;;50.22;33.33;;;;;;;5.48;65.39;102835.59;5094485;28;20021;-50
2022/03/24 01:09:28;;;;;;;53.60;33.85;;;;;;;5.40;64.93;102833.94;5094898;28;20020;-50
2022/03/24 01:11:53;;;;;;;47.80;32.45;;;;;;;5.34;64.31;102832.09;5094497;28;20475;-49
2022/03/24 01:14:19;;;;;;;49.72;33.97;;;;;;;5.32;65.45;102834.22;5094118;28;20059;-48
2022/03/24 01:16:44;;;;;;;48.30;33.28;;;;;;;5.30;64.93;102833.59;5094527;28;20031;-51
2022/03/24 01:19:09;;;;;;;54.08;33.67;;;;;;;5.29;65.18;102831.94;5093387;28;20055;-53
2022/03/24 01:21:36;;;;;;;48.88;32.67;;;;;;;5.29;65.48;102829.19;5093990;28;20110;-54
2022/03/24 01:24:01;;;;;;;45.28;32.20;;;;;;;5.30;65.75;102833.59;5094754;28;20537;-53
2022/03/24 01:26:27;;;;;;;47.42;32.40;;;;;;;5.29;65.37;102829.19;5094329;28;20029;-54
2022/03/24 01:28:53;;;;;;;49.33;33.22;;;;;;;5.30;65.34;102833.59;5094368;28;20017;-52
2022/03/24 01:31:20;;;;;;;47.47;32.88;;;;;;;5.30;65.64;102828.09;5094820;28;20058;-54
2022/03/24 01:33:47;;;;;;;49.17;33.80;;;;;;;5.31;65.70;102829.78;5094537;28;20028;-54
2022/03/24 01:36:13;;;;;;;46.65;32.40;;;;;;;5.26;65.08;102826.88;5094613;28;20143;-54
2022/03/24 01:38:38;;;;;;;49.25;32.92;;;;;;;5.20;65.04;102820.38;5093746;28;20134;-54
2022/03/24 01:41:07;;;;;;;50.17;34.30;;;;;;;5.15;65.75;102825.66;5094213;28;20048;-54
2022/03/24 01:43:33;;;;;;;53.30;34.15;;;;;;;5.18;65.34;102824.41;5094414;28;20025;-54
2022/03/24 01:45:59;;;;;;;47.13;32.55;;;;;;;5.14;65.62;102819.34;5094209;28;20043;-51
2022/03/24 01:48:25;;;;;;;48.67;34.05;;;;;;;5.10;66.20;102815.34;5094164;28;20016;-50
2022/03/24 01:50:50;;;;;;;52.60;33.55;;;;;;;5.06;65.34;102816.00;5093255;28;20077;-49
2022/03/24 01:53:18;;;;;;;46.65;32.63;;;;;;;5.03;66.13;102806.31;5093869;28;20020;-49
2022/03/24 01:55:44;;;;;;;50.35;34.25;;;;;;;4.96;66.34;102806.34;5094038;28;20475;-50
2022/03/24 01:58:11;;;;;;;53.03;34.35;;;;;;;4.83;67.25;102790.81;5093111;28;20051;-49
2022/03/24 02:00:37;;;;;;;48.95;34.38;;;;;;;4.86;66.74;102802.41;5094005;28;20553;-50
2022/03/24 02:03:04;;;;;;;51.85;33.75;;;;;;;4.80;67.15;102796.75;5093263;28;20056;-49
2022/03/24 02:05:31;;;;;;;47.65;33.17;;;;;;;4.71;67.82;102795.34;5094121;28;20024;-50
2022/03/24 02:08:00;;;;;;;49.85;33.83;;;;;;;4.69;68.26;102806.50;5093509;28;20115;-49
2022/03/24 02:10:25;;;;;;;53.97;34.22;;;;;;;4.73;67.30;102806.91;5093382;28;20020;-52
2022/03/24 02:12:53;;;;;;;53.25;35.13;;;;;;;4.67;67.69;102788.59;5093699;28;20032;-52
2022/03/24 02:15:18;;;;;;;52.53;32.88;;;;;;;4.66;67.46;102798.72;5093705;28;20016;-50
2022/03/24 02:17:44;;;;;;;48.85;34.13;;;;;;;4.65;67.59;102796.19;5093304;28;20073;-50
2022/03/24 02:20:09;;;;;;;49.95;34.20;;;;;;;4.62;67.88;102805.69;5093805;28;20032;-51
2022/03/24 02:22:35;;;;;;;50.90;34.50;;;;;;;4.56;68.18;102805.72;5093833;28;20387;-53
2022/03/24 02:25:00;;;;;;;49.72;33.00;;;;;;;4.52;67.34;102800.69;5091442;28;20032;-50
2022/03/24 02:27:25;;;;;;;48.40;34.15;;;;;;;4.52;68.12;102797.09;5092132;28;20472;-51
2022/03/24 02:29:51;;;;;;;50.38;34.17;;;;;;;4.49;68.77;102800.25;5092886;28;20031;-50
2022/03/24 02:32:21;;;;;;;48.50;33.13;;;;;;;4.41;68.41;102798.63;5093704;28;20028;-51
2022/03/24 02:34:51;;;;;;;47.92;34.05;;;;;;;4.40;68.50;102804.28;5092960;28;20472;-54
2022/03/24 02:37:22;;;;;;;48.35;33.90;;;;;;;4.38;68.91;102799.03;5093163;28;20451;-54
2022/03/24 02:39:50;;;;;;;53.35;32.42;;;;;;;4.38;68.77;102796.31;5093164;28;20024;-54
2022/03/24 02:42:19;;;;;;;50.65;34.22;;;;;;;4.38;68.66;102796.31;5092590;28;20060;-54
2022/03/24 02:44:48;;;;;;;49.40;34.42;;;;;;;4.40;69.61;102799.69;5093654;28;20027;-54
2022/03/24 02:47:13;;;;;;;52.75;34.10;;;;;;;4.44;68.45;102798.16;5093202;28;20502;-54
2022/03/24 02:49:40;;;;;;;52.03;35.92;;;;;;;4.42;68.46;102796.72;5092931;28;20020;-54
2022/03/24 02:52:06;;;;;;;51.33;34.60;;;;;;;4.39;68.76;102799.91;5092863;28;20114;-54
2022/03/24 02:54:32;;;;;;;51.72;35.17;;;;;;;4.36;68.64;102799.28;5092944;28;20028;-53
2022/03/24 02:56:58;;;;;;;55.17;34.45;;;;;;;4.32;68.84;102795.25;5092713;28;20046;-54
2022/03/24 02:59:24;;;;;;;50.50;33.80;;;;;;;4.29;69.02;102797.59;5092711;28;20127;-55
2022/03/24 03:01:58;;;;;;;49.45;34.22;;;;;;;4.24;68.82;102803.72;5092645;28;20032;-54
2022/03/24 03:04:23;;;;;;;52.67;35.45;;;;;;;4.16;69.53;102799.31;5092627;28;20031;-52
2022/03/24 03:06:49;;;;;;;50.40;33.67;;;;;;;4.11;69.40;102801.03;5092425;28;20383;-54
2022/03/24 03:09:16;;;;;;;50.88;34.33;;;;;;;4.08;69.71;102796.81;5091969;28;20027;-52
2022/03/24 03:11:45;;;;;;;53.42;33.80;;;;;;;4.05;69.21;102800.00;5073245;22;20424;-56
2022/03/24 03:14:12;;;;;;;52.40;34.95;;;;;;;3.99;69.85;102798.94;5051244;28;20047;-51
2022/03/24 03:16:38;;;;;;;49.72;32.55;;;;;;;3.95;70.31;102799.59;5051346;28;20035;-59
2022/03/24 03:19:04;;;;;;;52.25;33.92;;;;;;;3.91;70.15;102799.19;5051658;28;20112;-52
2022/03/24 03:21:29;;;;;;;47.90;32.63;;;;;;;3.89;70.28;102799.38;5051262;28;20109;-53
2022/03/24 03:23:55;;;;;;;52.13;33.72;;;;;;;3.86;70.42;102796.22;5051224;28;20032;-54
2022/03/24 03:26:22;;;;;;;48.85;33.10;;;;;;;3.79;70.39;102792.66;5051122;28;20033;-53
2022/03/24 03:28:47;;;;;;;48.88;32.35;;;;;;;3.78;70.22;102801.91;5050804;28;20037;-55
2022/03/24 03:31:14;;;;;;;46.50;33.55;;;;;;;3.75;70.75;102794.97;5050925;28;20106;-54
2022/03/24 03:33:39;;;;;;;49.53;33.17;;;;;;;3.72;70.84;102789.91;5051242;28;20477;-54
2022/03/24 03:36:05;;;;;;;51.83;32.90;;;;;;;3.72;71.26;102798.13;5051054;28;20086;-53
2022/03/24 03:38:33;;;;;;;50.80;33.75;;;;;;;3.69;70.81;102785.72;5051346;28;20473;-53
2022/03/24 03:41:02;;;;;;;47.00;32.75;;;;;;;3.66;71.14;102796.25;5051562;28;20074;-53
2022/03/24 03:43:28;;;;;;;48.30;32.97;;;;;;;3.66;70.96;102801.72;5051279;28;20031;-54
2022/03/24 03:45:53;;;;;;;46.22;32.17;;;;;;;3.64;71.33;102796.44;5051363;28;20032;-54
2022/03/24 03:48:18;;;;;;;46.78;32.50;;;;;;;3.64;71.56;102798.34;5051676;28;20423;-54
2022/03/24 03:50:44;;;;;;;46.78;31.75;;;;;;;3.59;71.42;102797.06;5051566;28;20025;-52
2022/03/24 03:53:10;;;;;;;50.90;31.60;;;;;;;3.55;71.95;102789.50;5051816;28;20021;-54
2022/03/24 03:55:37;;;;;;;48.47;33.15;;;;;;;3.51;71.95;102805.50;5051520;28;20508;-54
2022/03/24 03:58:03;;;;;;;46.88;30.70;;;;;;;3.45;71.79;102797.31;5050928;28;20183;-54
2022/03/24 04:03:12;;;;;;;46.17;31.65;;;;;;;3.34;72.12;102809.69;5051106;28;20479;-53
2022/03/24 04:05:38;;;;;;;45.70;31.17;;;;;;;3.31;71.54;102802.75;5051434;28;20052;-55
2022/03/24 04:08:03;;;;;;;47.53;32.00;;;;;;;3.28;72.21;102809.50;5050853;28;20032;-54
2022/03/24 04:10:30;;;;;;;49.58;32.58;;;;;;;3.28;72.62;102816.84;5050497;28;20053;-53
2022/03/24 04:12:58;;;;;;;48.10;32.65;;;;;;;3.24;72.18;102813.69;5051211;28;20433;-53
2022/03/24 04:15:24;;;;;;;47.78;32.30;;;;;;;3.18;73.13;102809.06;5052656;28;20051;-54
2022/03/24 04:17:53;;;;;;;49.58;32.63;;;;;;;3.18;72.52;102805.47;5054273;28;20457;-53
2022/03/24 04:20:21;;;;;;;45.97;32.05;;;;;;;3.15;72.76;102809.47;5055128;28;20033;-55
2022/03/24 04:22:50;;;;;;;48.13;31.52;;;;;;;3.14;72.91;102817.88;5054733;28;20021;-55
2022/03/24 04:25:20;;;;;;;44.78;31.27;;;;;;;3.11;73.25;102816.41;5054766;28;20032;-53
2022/03/24 04:27:46;;;;;;;47.88;30.27;;;;;;;3.10;73.04;102804.63;5053871;28;20025;-54
2022/03/24 04:30:12;;;;;;;47.88;32.25;;;;;;;3.04;73.08;102802.72;5053779;28;20039;-54
2022/03/24 04:32:38;;;;;;;48.35;31.80;;;;;;;2.99;73.38;102807.97;5054389;28;20021;-55
2022/03/24 04:35:03;;;;;;;48.53;31.77;;;;;;;2.94;73.09;102807.75;5054681;28;20036;-56
2022/03/24 04:37:29;;;;;;;47.55;31.77;;;;;;;2.87;73.94;102801.44;5054457;28;20025;-54
2022/03/24 04:39:54;;;;;;;47.22;31.77;;;;;;;2.86;73.67;102806.03;5053663;28;20025;-55
2022/03/24 04:42:19;;;;;;;51.85;31.92;;;;;;;2.82;73.62;102804.78;5054319;28;20025;-54
2022/03/24 04:44:45;;;;;;;46.65;31.70;;;;;;;2.83;74.14;102806.47;5054106;28;20036;-54
2022/03/24 04:47:10;;;;;;;49.65;31.73;;;;;;;2.81;74.75;102812.13;5053998;28;20503;-54
2022/03/24 04:49:36;;;;;;;48.50;32.53;;;;;;;2.78;74.52;102804.34;5054079;28;20530;-55
2022/03/24 04:52:03;;;;;;;46.70;30.98;;;;;;;2.75;74.66;102810.22;5054160;28;20059;-55
2022/03/24 04:54:28;;;;;;;47.88;32.10;;;;;;;2.73;74.73;102809.56;5054110;28;20029;-53
2022/03/24 04:56:53;;;;;;;44.80;31.10;;;;;;;2.73;73.94;102809.56;5054305;28;20033;-54
2022/03/24 04:59:19;;;;;;;45.60;30.75;;;;;;;2.65;74.05;102807.84;5053549;28;20120;-53
2022/03/24 05:01:44;;;;;;;50.05;30.88;;;;;;;2.61;74.94;102808.47;5053545;28;20055;-54
2022/03/24 05:04:10;;;;;;;47.25;31.50;;;;;;;2.58;75.76;102817.09;5054320;28;20053;-52
2022/03/24 05:06:35;;;;;;;49.70;33.55;;;;;;;2.54;75.93;102816.66;5054217;28;20043;-53
2022/03/24 05:09:00;;;;;;;48.00;33.05;;;;;;;2.49;76.13;102825.47;5053780;28;20393;-55
2022/03/24 05:11:26;;;;;;;50.80;33.10;;;;;;;2.44;75.87;102817.00;5053979;28;20116;-55
2022/03/24 05:13:51;;;;;;;49.60;32.00;;;;;;;2.38;76.66;102814.25;5052650;28;20052;-55
2022/03/24 05:16:18;;;;;;;49.38;32.08;;;;;;;2.34;76.11;102824.72;5053991;28;20033;-53
2022/03/24 05:18:43;;;;;;;50.33;32.58;;;;;;;2.30;76.30;102820.75;5053302;28;20029;-55
2022/03/24 05:21:08;;;;;;;53.50;33.10;;;;;;;2.27;76.41;102819.22;5053550;28;20052;-55
2022/03/24 05:23:34;;;;;;;47.58;31.88;;;;;;;2.26;76.39;102814.84;5051765;28;20029;-55
2022/03/24 05:25:59;;;;;;;47.47;33.03;;;;;;;2.23;75.94;102808.91;5053569;28;20039;-55
2022/03/24 05:28:25;;;;;;;46.17;32.53;;;;;;;2.27;76.11;102819.22;5051033;28;20499;-52
2022/03/24 05:30:50;;;;;;;60.10;34.45;;;;;;;2.29;76.37;102825.34;5040159;28;20044;-55
2022/03/24 05:33:15;;;;;;;50.83;32.97;;;;;;;2.26;75.90;102819.44;5052889;28;20060;-53
2022/03/24 05:35:41;;;;;;;45.55;31.60;;;;;;;2.29;76.22;102822.63;5053056;28;20057;-53
2022/03/24 05:38:06;;;;;;;53.20;33.72;;;;;;;2.31;76.19;102819.69;5053015;28;20475;-53
2022/03/24 05:40:32;;;;;;;49.40;32.03;;;;;;;2.31;76.24;102827.91;5052268;28;20064;-55
2022/03/24 05:42:58;;;;;;;51.05;34.13;;;;;;;2.28;76.48;102820.91;5053400;28;20021;-54
2022/03/24 05:45:23;;;;;;;48.80;33.00;;;;;;;2.28;76.57;102825.56;5053403;28;20167;-55
2022/03/24 05:47:48;;;;;;;53.83;33.78;;;;;;;2.30;76.45;102823.47;5053504;28;20396;-54
2022/03/24 05:50:14;;;;;;;51.53;32.38;;;;;;;2.29;76.12;102822.63;5053309;28;20029;-55
2022/03/24 05:52:40;;;;;;;50.38;32.80;;;;;;;2.32;76.41;102824.94;5053592;28;20556;-55
2022/03/24 05:55:06;;;;;;;52.00;33.65;;;;;;;2.35;76.52;102820.97;5053757;28;20029;-55
2022/03/24 05:57:32;;;;;;;51.75;32.78;;;;;;;2.40;76.57;102828.56;5052062;28;20055;-54
2022/03/24 05:59:58;;;;;;;53.55;33.55;;;;;;;2.45;77.14;102823.34;5053125;28;20029;-54
2022/03/24 06:02:24;;;;;;;50.67;33.45;;;;;;;2.49;77.20;102825.47;5051271;28;20025;-54
2022/03/24 06:04:51;;;;;;;52.78;33.50;;;;;;;2.52;76.93;102829.69;5052148;28;20040;-54
2022/03/24 06:07:17;;;;;;;49.88;34.15;;;;;;;2.55;76.95;102829.25;5051556;28;20403;-52
2022/03/24 06:09:42;;;;;;;55.17;34.42;;;;;;;2.60;76.92;102826.75;5052384;28;20071;-54
2022/03/24 06:12:12;;;;;;;53.05;33.78;;;;;;;2.63;77.23;102831.84;5053040;28;20440;-53
2022/03/24 06:14:40;;;;;;;52.28;33.00;;;;;;;2.68;77.04;102831.22;5052825;28;20025;-53
2022/03/24 06:17:05;;;;;;;51.67;32.97;;;;;;;2.77;76.75;102830.00;5052864;28;20112;-54
2022/03/24 06:19:32;;;;;;;54.10;33.55;;;;;;;2.83;76.16;102831.06;5053045;28;20095;-53
2022/03/24 06:21:57;;;;;;;55.47;34.78;;;;;;;2.87;75.91;102836.97;5052423;28;20532;-54
2022/03/24 06:24:22;;;;;;;53.28;34.38;;;;;;;2.93;75.80;102842.44;5052514;28;20095;-54
2022/03/24 06:26:48;;;;;;;51.00;33.20;;;;;;;2.98;76.06;102836.34;5052417;28;20075;-53
2022/03/24 06:29:14;;;;;;;51.50;32.90;;;;;;;3.05;75.39;102839.09;5052295;28;20097;-53
2022/03/24 06:31:41;;;;;;;52.80;33.70;;;;;;;3.11;75.82;102832.84;5051958;28;20051;-53
2022/03/24 06:34:06;;;;;;;49.63;33.63;;;;;;;3.18;75.54;102841.03;5052368;28;20036;-53
2022/03/24 06:36:32;;;;;;;49.88;32.67;;;;;;;3.24;75.77;102843.78;5052408;28;20033;-54
2022/03/24 06:38:57;;;;;;;55.92;35.20;;;;;;;3.33;74.97;102841.69;5051907;28;20076;-54
2022/03/24 06:41:22;;;;;;;49.88;34.42;;;;;;;3.43;75.09;102839.41;5052180;28;20207;-54
2022/03/24 06:43:48;;;;;;;52.65;35.08;;;;;;;3.53;75.59;102840.88;5052238;28;20452;-54
2022/03/24 06:46:14;;;;;;;47.97;30.73;;;;;;;3.61;74.66;102840.69;5052343;28;20051;-53
2022/03/24 06:48:39;;;;;;;51.05;34.92;;;;;;;3.70;74.83;102841.28;5051141;28;20032;-53
2022/03/24 06:51:05;;;;;;;51.80;33.13;;;;;;;3.80;74.57;102843.63;5052259;28;20067;-52
2022/03/24 06:53:31;;;;;;;55.63;34.47;;;;;;;3.87;74.33;102841.72;5052095;28;20103;-53
2022/03/24 06:55:56;;;;;;;51.83;34.13;;;;;;;3.96;74.36;102832.22;5051986;28;20037;-53
2022/03/24 06:58:22;;;;;;;51.03;34.38;;;;;;;4.06;73.65;102840.03;5051866;28;20032;-50
2022/03/24 07:00:48;;;;;;;53.60;35.13;;;;;;;4.14;73.97;102836.19;5050745;28;20036;-55
2022/03/24 07:03:13;;;;;;;50.65;33.88;;;;;;;4.26;73.84;102845.47;5051540;28;20039;-52
2022/03/24 07:05:39;;;;;;;51.05;34.17;;;;;;;4.36;73.48;102845.84;5051815;28;20037;-55
2022/03/24 07:08:04;;;;;;;53.50;35.10;;;;;;;4.45;73.57;102843.72;5051660;28;20457;-55
2022/03/24 07:10:30;;;;;;;52.70;35.42;;;;;;;4.56;73.11;102844.09;5051038;28;20110;-55
2022/03/24 07:12:56;;;;;;;51.13;35.75;;;;;;;4.65;74.00;102851.03;5037712;28;20116;-54
2022/03/24 07:15:22;;;;;;;51.33;34.95;;;;;;;4.73;74.01;102847.19;5030394;28;20461;-56
2022/03/24 07:17:48;;;;;;;49.50;33.97;;;;;;;4.82;73.20;102852.22;5028921;28;20039;-55
2022/03/24 07:20:13;;;;;;;53.15;36.00;;;;;;;4.92;74.04;102860.00;5029553;28;20037;-55
2022/03/24 07:22:39;;;;;;;49.92;33.90;;;;;;;5.02;73.24;102845.78;5029031;28;20179;-55
2022/03/24 07:25:06;;;;;;;54.70;35.55;;;;;;;5.15;72.65;102853.97;5029366;28;20120;-54
2022/03/24 07:27:31;;;;;;;51.58;35.63;;;;;;;5.28;72.33;102854.94;5029841;28;20026;-55
2022/03/24 07:29:57;;;;;;;53.08;35.95;;;;;;;5.38;71.72;102847.06;5028209;28;20030;-55
2022/03/24 07:32:22;;;;;;;55.92;37.08;;;;;;;5.49;72.11;102855.63;5032393;28;20030;-55
2022/03/24 07:34:47;;;;;;;53.53;36.03;;;;;;;5.57;71.93;102850.72;5056014;28;20025;-57
2022/03/24 07:37:13;;;;;;;53.58;36.17;;;;;;;5.67;72.29;102855.69;5049679;28;20040;-55
2022/03/24 07:39:38;;;;;;;57.45;39.33;;;;;;;5.80;71.44;102852.03;5049618;28;20404;-54
2022/03/24 07:42:04;;;;;;;53.25;36.10;;;;;;;5.88;71.30;102854.50;5049583;28;20499;-55
2022/03/24 07:44:30;;;;;;;56.72;38.17;;;;;;;6.01;70.47;102849.94;5048321;28;20087;-55
2022/03/24 07:46:55;;;;;;;56.35;36.45;;;;;;;6.14;69.82;102854.50;5048262;28;20457;-55
2022/03/24 07:49:20;;;;;;;53.53;35.90;;;;;;;6.28;69.22;102849.72;5049770;28;20025;-56
2022/03/24 07:51:46;;;;;;;54.90;36.88;;;;;;;6.42;67.99;102856.72;5052360;28;20017;-55
2022/03/24 07:54:11;;;;;;;52.10;35.67;;;;;;;6.56;67.03;102861.00;5053793;28;20047;-55
2022/03/24 07:56:38;;;;;;;57.53;35.90;;;;;;;6.69;67.19;102853.66;5053731;28;20577;-55
2022/03/24 07:59:05;;;;;;;60.00;36.75;;;;;;;6.83;66.41;102857.09;5053656;28;20035;-55
2022/03/24 08:01:34;;;;;;;55.20;36.58;;;;;;;6.90;66.07;102851.50;5053826;28;20477;-55
2022/03/24 08:04:05;;;;;;;52.60;36.28;;;;;;;7.01;66.37;102853.47;5053549;28;20045;-53
2022/03/24 08:06:31;;;;;;;55.92;37.67;;;;;;;7.15;65.97;102859.63;5053354;28;20029;-54
2022/03/24 08:08:57;;;;;;;58.13;37.58;;;;;;;7.26;65.67;102860.75;5053216;28;20052;-56
2022/03/24 08:11:25;;;;;;;56.25;37.17;;;;;;;7.41;64.63;102863.06;5053004;28;20060;-55
2022/03/24 08:13:53;;;;;;;56.15;34.88;;;;;;;7.48;64.07;102858.28;5053330;28;20218;-55
2022/03/24 08:16:22;;;;;;;54.08;35.40;;;;;;;7.66;63.50;102865.66;5053287;28;20120;-55
2022/03/24 08:18:48;;;;;;;54.65;35.05;;;;;;;7.77;63.51;102869.47;5053347;28;20075;-55
2022/03/24 08:21:13;;;;;;;53.90;35.83;;;;;;;7.91;62.59;102870.09;5053031;28;20392;-55
2022/03/24 08:23:39;;;;;;;53.72;34.83;;;;;;;8.00;61.90;102876.09;5051842;28;20358;-56
2022/03/24 08:26:05;;;;;;;57.22;36.10;;;;;;;8.16;60.87;102869.88;5053206;28;20033;-56
2022/03/24 08:28:30;;;;;;;48.85;33.13;;;;;;;8.32;59.94;102868.31;5053146;28;20425;-54
2022/03/24 08:30:56;;;;;;;52.38;33.65;;;;;;;8.46;58.86;102868.91;5051032;28;20082;-54
2022/03/24 08:33:21;;;;;;;49.83;32.40;;;;;;;8.56;59.60;102873.81;5052692;28;20029;-54
2022/03/24 08:35:46;;;;;;;57.03;36.88;;;;;;;8.64;59.38;102872.59;5052869;28;20174;-56
2022/03/24 08:38:12;;;;;;;54.47;35.75;;;;;;;8.78;58.33;102878.69;5052799;28;20056;-55
2022/03/24 08:40:38;;;;;;;55.22;35.75;;;;;;;8.93;55.81;102879.00;5052911;28;20814;-55
2022/03/24 08:43:04;;;;;;;54.22;35.58;;;;;;;9.08;55.86;102877.66;5053179;28;20372;-55
2022/03/24 08:45:31;;;;;;;53.33;36.15;;;;;;;9.21;56.04;102872.66;5052852;28;20083;-56
2022/03/24 08:47:56;;;;;;;52.33;35.03;;;;;;;9.30;55.50;102866.75;5052925;28;20032;-55
2022/03/24 08:50:22;;;;;;;55.50;36.30;;;;;;;9.49;54.71;102873.72;5052477;28;20024;-55
2022/03/24 08:52:48;;;;;;;53.35;34.00;;;;;;;9.68;54.88;102879.00;5052362;28;20040;-55
2022/03/24 08:55:14;;;;;;;49.25;33.90;;;;;;;9.83;53.89;102876.50;5052832;28;20079;-55
2022/03/24 08:57:40;;;;;;;48.83;31.90;;;;;;;9.94;53.32;102879.44;5052718;28;20033;-55
2022/03/24 09:00:15;;;;;;;47.15;32.80;;;;;;;10.06;50.58;102877.41;5050917;28;20025;-55
2022/03/24 09:02:43;;;;;;;52.60;33.70;;;;;;;10.25;49.67;102875.22;5052648;28;20032;-55
2022/03/24 09:05:08;;;;;;;46.75;32.80;;;;;;;10.38;49.94;102862.13;5052895;28;20044;-54
2022/03/24 09:07:35;;;;;;;47.50;32.65;;;;;;;10.53;49.63;102875.34;5052895;28;20033;-55
2022/03/24 09:10:00;;;;;;;45.17;33.55;;;;;;;10.67;48.04;102878.59;5052630;28;20044;-56
2022/03/24 09:12:26;;;;;;;47.40;31.02;;;;;;;10.87;48.56;102883.53;5052195;28;20443;-55
2022/03/24 09:14:51;;;;;;;43.63;31.52;;;;;;;10.93;49.44;102875.03;5052112;28;20095;-56
2022/03/24 09:17:16;;;;;;;41.75;29.38;;;;;;;11.10;45.56;102876.88;5050635;28;20052;-56
2022/03/24 09:19:42;;;;;;;44.22;31.50;;;;;;;11.34;45.02;102877.41;5051976;28;20037;-55
2022/03/24 09:22:07;;;;;;;46.22;32.60;;;;;;;11.60;45.11;102871.28;5052376;28;20021;-56
2022/03/24 09:24:34;;;;;;;43.85;30.17;;;;;;;11.78;44.14;102881.16;5052372;28;20056;-55
2022/03/24 09:27:00;;;;;;;44.00;29.00;;;;;;;11.98;41.75;102880.50;5052387;28;20103;-55
2022/03/24 09:29:25;;;;;;;37.67;26.67;;;;;;;12.17;41.88;102878.16;5052341;28;20560;-56
2022/03/24 09:31:51;;;;;;;38.47;26.80;;;;;;;12.25;41.08;102885.13;5050706;28;20542;-55
2022/03/24 09:34:16;;;;;;;39.70;28.50;;;;;;;12.42;41.13;102885.78;5052345;28;20369;-55
2022/03/24 09:36:42;;;;;;;37.17;26.63;;;;;;;12.54;39.65;102884.72;5052369;28;20530;-57
2022/03/24 09:39:08;;;;;;;37.60;26.83;;;;;;;12.76;38.29;102881.78;5052095;28;20032;-55
2022/03/24 09:41:35;;;;;;;34.80;25.70;;;;;;;12.90;36.21;102873.78;5051936;28;20404;-56
2022/03/24 09:44:02;;;;;;;35.95;26.73;;;;;;;13.10;36.87;102881.34;5034049;28;20059;-55
2022/03/24 09:46:28;;;;;;;37.95;27.08;;;;;;;13.22;37.09;102884.72;5050444;28;20497;-55
2022/03/24 09:48:55;;;;;;;39.30;27.73;;;;;;;13.32;37.59;102880.31;5051591;28;20104;-55
2022/03/24 09:51:24;;;;;;;40.55;29.10;;;;;;;13.44;37.96;102883.66;5051884;28;20024;-55
2022/03/24 09:53:50;;;;;;;39.33;29.27;;;;;;;13.56;38.03;102884.25;5051593;28;20401;-56
2022/03/24 09:56:16;;;;;;;36.00;26.80;;;;;;;13.61;37.18;102877.84;5051588;28;20040;-55
2022/03/24 09:58:44;;;;;;;35.22;26.00;;;;;;;13.70;32.39;102878.97;5051430;28;20033;-55
2022/03/24 10:01:15;;;;;;;34.92;25.08;;;;;;;13.74;33.57;102870.91;5051642;28;20028;-56
2022/03/24 10:04:08;;;;;;;33.65;24.55;;;;;;;13.75;35.81;102868.94;5051488;28;20041;-55
2022/03/24 10:06:35;;;;;;;36.13;25.60;;;;;;;13.89;32.81;102879.22;5051493;28;20048;-56
2022/03/24 10:09:02;;;;;;;34.83;25.52;;;;;;;14.01;32.95;102875.34;5051164;28;20051;-55
2022/03/24 10:11:27;;;;;;;35.70;25.88;;;;;;;13.99;33.87;102878.41;5051175;28;20507;-55
2022/03/24 10:13:55;;;;;;;34.92;25.98;;;;;;;14.15;32.99;102884.78;5050138;28;20198;-55
2022/03/24 10:16:37;;;;;;;39.75;27.70;;;;;;;14.19;33.82;102880.31;5050841;28;20029;-54
2022/03/24 10:19:07;;;;;;;37.67;26.08;;;;;;;14.26;33.66;102868.06;5051272;28;20033;-55
2022/03/24 10:21:35;;;;;;;37.30;26.60;;;;;;;14.24;33.07;102857.19;5051069;28;20646;-55
2022/03/24 10:24:10;;;;;;;38.55;26.92;;;;;;;14.31;33.97;102863.31;5050992;28;20104;-55
2022/03/24 10:26:41;;;;;;;37.25;27.40;;;;;;;14.35;34.61;102849.69;5049507;28;20029;-54
2022/03/24 10:29:08;;;;;;;35.00;25.60;;;;;;;14.50;35.06;102857.13;5050876;28;20025;-55
2022/03/24 10:31:35;;;;;;;40.95;27.02;;;;;;;14.63;33.72;102852.91;5048732;28;20028;-55
2022/03/24 10:34:02;;;;;;;37.25;26.30;;;;;;;14.65;34.71;102850.66;5050755;28;20036;-55
2022/03/24 10:36:27;;;;;;;36.15;26.80;;;;;;;14.69;33.82;102851.81;5049359;28;20033;-55
2022/03/24 10:38:56;;;;;;;36.78;26.83;;;;;;;14.78;33.38;102850.09;5049256;28;20021;-55
2022/03/24 10:41:27;;;;;;;35.15;25.35;;;;;;;14.84;31.83;102848.09;5050687;28;20065;-55
2022/03/24 10:43:59;;;;;;;32.33;22.83;;;;;;;14.81;31.68;102832.81;5050378;28;20040;-55
2022/03/24 10:46:33;;;;;;;30.58;21.88;;;;;;;15.06;29.80;102850.50;5050936;28;20029;-56
2022/03/24 10:49:13;;;;;;;30.60;21.95;;;;;;;15.15;29.33;102850.72;5049090;28;20061;-56
2022/03/24 10:51:42;;;;;;;29.65;21.58;;;;;;;15.18;29.26;102836.19;5050848;28;20096;-55
2022/03/24 10:54:38;;;;;;;34.15;23.45;;;;;;;15.33;31.30;102846.41;5049102;28;20032;-55
2022/03/24 10:57:13;;;;;;;29.40;21.05;;;;;;;15.32;28.38;102841.13;5050668;28;20036;-56
2022/03/24 10:59:42;;;;;;;29.95;21.05;;;;;;;15.33;27.50;102840.00;5043280;28;20041;-56
2022/03/24 11:02:09;;;;;;;31.67;21.20;;;;;;;15.42;28.09;102843.84;5030945;28;20552;-56
2022/03/24 11:04:35;;;;;;;28.65;20.25;;;;;;;15.48;27.63;102853.84;5030746;28;20030;-57
2022/03/24 11:07:00;;;;;;;30.33;21.73;;;;;;;15.52;27.19;102851.28;5030640;28;20037;-55
2022/03/24 11:09:33;;;;;;;31.17;20.88;;;;;;;15.54;27.25;102841.50;5030564;28;20083;-56
2022/03/24 11:12:26;;;;;;;30.38;21.40;;;;;;;15.54;28.46;102847.06;5030317;28;20404;-56
2022/03/24 11:14:54;;;;;;;29.67;20.55;;;;;;;15.53;26.89;102839.84;5030736;28;20030;-55